sensor_id;sensor_type;location;lat;lon;timestamp;temperature;humidity
23073;DHT22;67971;51.046;3.732;2023-07-09T00:00:22;26.50;99.90
23073;DHT22;67971;51.046;3.732;2023-07-09T00:02:49;26.50;99.90
23073;DHT22;67971;51.046;3.732;2023-07-09T00:05:16;26.50;99.90
23073;DHT22;67971;51.046;3.732;2023-07-09T00:07:43;26.50;99.90
23073;DHT22;67971;51.046;3.732;2023-07-09T00:10:20;26.50;99.90
23073;DHT22;67971;51.046;3.732;2023-07-09T00:12:47;26.40;99.90
23073;DHT22;67971;51.046;3.732;2023-07-09T00:15:14;26.40;99.90
23073;DHT22;67971;51.046;3.732;2023-07-09T00:17:44;26.40;99.90
23073;DHT22;67971;51.046;3.732;2023-07-09T00:20:13;26.40;99.90
23073;DHT22;67971;51.046;3.732;2023-07-09T00:22:40;26.40;99.90
23073;DHT22;67971;51.046;3.732;2023-07-09T00:25:10;26.30;99.90
23073;DHT22;67971;51.046;3.732;2023-07-09T00:27:39;26.20;99.90
23073;DHT22;67971;51.046;3.732;2023-07-09T00:30:12;26.20;99.90
23073;DHT22;67971;51.046;3.732;2023-07-09T00:32:40;26.10;99.90
23073;DHT22;67971;51.046;3.732;2023-07-09T00:35:10;26.00;99.90
23073;DHT22;67971;51.046;3.732;2023-07-09T00:37:39;25.60;99.90
23073;DHT22;67971;51.046;3.732;2023-07-09T00:40:08;25.50;99.90
23073;DHT22;67971;51.046;3.732;2023-07-09T00:42:35;25.40;99.90
23073;DHT22;67971;51.046;3.732;2023-07-09T00:45:01;25.50;99.90
23073;DHT22;67971;51.046;3.732;2023-07-09T00:47:39;25.60;99.90
23073;DHT22;67971;51.046;3.732;2023-07-09T00:50:21;25.70;99.90
23073;DHT22;67971;51.046;3.732;2023-07-09T00:52:56;25.70;99.90
23073;DHT22;67971;51.046;3.732;2023-07-09T00:55:27;25.60;99.90
23073;DHT22;67971;51.046;3.732;2023-07-09T00:58:00;25.60;99.90
23073;DHT22;67971;51.046;3.732;2023-07-09T01:00:49;25.70;99.90
23073;DHT22;67971;51.046;3.732;2023-07-09T01:03:35;25.70;99.90
23073;DHT22;67971;51.046;3.732;2023-07-09T01:06:01;25.60;99.90
23073;DHT22;67971;51.046;3.732;2023-07-09T01:08:31;25.70;99.90
23073;DHT22;67971;51.046;3.732;2023-07-09T01:10:58;25.70;99.90
23073;DHT22;67971;51.046;3.732;2023-07-09T01:13:28;25.50;99.90
23073;DHT22;67971;51.046;3.732;2023-07-09T01:15:54;25.10;99.90
23073;DHT22;67971;51.046;3.732;2023-07-09T01:18:21;24.90;99.90
23073;DHT22;67971;51.046;3.732;2023-07-09T01:20:48;24.70;99.90
23073;DHT22;67971;51.046;3.732;2023-07-09T01:23:13;24.60;99.90
23073;DHT22;67971;51.046;3.732;2023-07-09T01:25:47;24.50;99.90
23073;DHT22;67971;51.046;3.732;2023-07-09T01:28:18;24.20;99.90
23073;DHT22;67971;51.046;3.732;2023-07-09T01:30:44;24.20;99.90
23073;DHT22;67971;51.046;3.732;2023-07-09T01:33:10;24.00;99.90
23073;DHT22;67971;51.046;3.732;2023-07-09T01:35:39;24.00;99.90
23073;DHT22;67971;51.046;3.732;2023-07-09T01:38:08;24.20;99.90
23073;DHT22;67971;51.046;3.732;2023-07-09T01:40:34;24.30;99.90
23073;DHT22;67971;51.046;3.732;2023-07-09T01:43:02;24.30;99.90
23073;DHT22;67971;51.046;3.732;2023-07-09T01:45:31;24.30;99.90
23073;DHT22;67971;51.046;3.732;2023-07-09T01:47:58;24.20;99.90
23073;DHT22;67971;51.046;3.732;2023-07-09T01:50:25;24.40;99.90
23073;DHT22;67971;51.046;3.732;2023-07-09T01:52:52;24.30;99.90
23073;DHT22;67971;51.046;3.732;2023-07-09T01:55:19;24.30;99.90
23073;DHT22;67971;51.046;3.732;2023-07-09T01:57:45;24.40;99.90
23073;DHT22;67971;51.046;3.732;2023-07-09T02:00:13;24.50;99.90
23073;DHT22;67971;51.046;3.732;2023-07-09T02:02:43;24.60;99.90
23073;DHT22;67971;51.046;3.732;2023-07-09T02:05:10;24.70;99.90
23073;DHT22;67971;51.046;3.732;2023-07-09T02:07:37;24.70;99.90
23073;DHT22;67971;51.046;3.732;2023-07-09T02:10:03;24.70;99.90
23073;DHT22;67971;51.046;3.732;2023-07-09T02:12:29;24.70;99.90
23073;DHT22;67971;51.046;3.732;2023-07-09T02:14:55;24.70;99.90
23073;DHT22;67971;51.046;3.732;2023-07-09T02:17:20;24.70;99.90
23073;DHT22;67971;51.046;3.732;2023-07-09T02:19:46;24.80;99.90
23073;DHT22;67971;51.046;3.732;2023-07-09T02:22:12;24.80;99.90
23073;DHT22;67971;51.046;3.732;2023-07-09T02:24:38;24.80;99.90
23073;DHT22;67971;51.046;3.732;2023-07-09T02:27:06;24.90;99.90
23073;DHT22;67971;51.046;3.732;2023-07-09T02:29:33;25.00;99.90
23073;DHT22;67971;51.046;3.732;2023-07-09T02:32:00;25.00;99.90
23073;DHT22;67971;51.046;3.732;2023-07-09T02:34:27;25.00;99.90
23073;DHT22;67971;51.046;3.732;2023-07-09T02:36:53;25.00;99.90
23073;DHT22;67971;51.046;3.732;2023-07-09T02:39:19;24.90;99.90
23073;DHT22;67971;51.046;3.732;2023-07-09T02:41:45;24.90;99.90
23073;DHT22;67971;51.046;3.732;2023-07-09T02:44:11;24.70;99.90
23073;DHT22;67971;51.046;3.732;2023-07-09T02:46:37;24.60;99.90
23073;DHT22;67971;51.046;3.732;2023-07-09T02:49:04;24.50;99.90
23073;DHT22;67971;51.046;3.732;2023-07-09T02:51:30;24.40;99.90
23073;DHT22;67971;51.046;3.732;2023-07-09T02:53:57;24.20;99.90
23073;DHT22;67971;51.046;3.732;2023-07-09T02:56:23;24.10;99.90
23073;DHT22;67971;51.046;3.732;2023-07-09T02:58:50;24.20;99.90
23073;DHT22;67971;51.046;3.732;2023-07-09T03:01:16;24.30;99.90
23073;DHT22;67971;51.046;3.732;2023-07-09T03:03:42;24.30;99.90
23073;DHT22;67971;51.046;3.732;2023-07-09T03:06:08;24.40;99.90
23073;DHT22;67971;51.046;3.732;2023-07-09T03:08:33;24.40;99.90
23073;DHT22;67971;51.046;3.732;2023-07-09T03:11:00;24.40;99.90
23073;DHT22;67971;51.046;3.732;2023-07-09T03:13:25;24.40;99.90
23073;DHT22;67971;51.046;3.732;2023-07-09T03:15:55;24.40;99.90
23073;DHT22;67971;51.046;3.732;2023-07-09T03:18:22;24.40;99.90
23073;DHT22;67971;51.046;3.732;2023-07-09T03:20:47;24.40;99.90
23073;DHT22;67971;51.046;3.732;2023-07-09T03:23:13;24.40;99.90
23073;DHT22;67971;51.046;3.732;2023-07-09T03:25:42;24.30;99.90
23073;DHT22;67971;51.046;3.732;2023-07-09T03:28:08;24.20;99.90
23073;DHT22;67971;51.046;3.732;2023-07-09T03:30:33;24.20;99.90
23073;DHT22;67971;51.046;3.732;2023-07-09T03:32:59;24.20;99.90
23073;DHT22;67971;51.046;3.732;2023-07-09T03:35:26;24.10;99.90
23073;DHT22;67971;51.046;3.732;2023-07-09T03:37:52;24.10;99.90
23073;DHT22;67971;51.046;3.732;2023-07-09T03:40:23;24.00;99.90
23073;DHT22;67971;51.046;3.732;2023-07-09T03:42:49;24.10;99.90
23073;DHT22;67971;51.046;3.732;2023-07-09T03:45:15;24.00;99.90
23073;DHT22;67971;51.046;3.732;2023-07-09T03:47:41;24.00;99.90
23073;DHT22;67971;51.046;3.732;2023-07-09T03:50:08;23.90;99.90
23073;DHT22;67971;51.046;3.732;2023-07-09T03:52:34;23.70;99.90
23073;DHT22;67971;51.046;3.732;2023-07-09T03:55:01;23.60;99.90
23073;DHT22;67971;51.046;3.732;2023-07-09T03:57:32;23.50;99.90
23073;DHT22;67971;51.046;3.732;2023-07-09T03:59:58;23.40;99.90
23073;DHT22;67971;51.046;3.732;2023-07-09T04:02:24;23.40;99.90
23073;DHT22;67971;51.046;3.732;2023-07-09T04:04:49;23.40;99.90
23073;DHT22;67971;51.046;3.732;2023-07-09T04:07:15;23.40;99.90
23073;DHT22;67971;51.046;3.732;2023-07-09T04:09:41;23.50;99.90
23073;DHT22;67971;51.046;3.732;2023-07-09T04:12:08;23.60;99.90
23073;DHT22;67971;51.046;3.732;2023-07-09T04:14:34;23.60;99.90
23073;DHT22;67971;51.046;3.732;2023-07-09T04:17:00;23.60;99.90
23073;DHT22;67971;51.046;3.732;2023-07-09T04:19:26;23.70;99.90
23073;DHT22;67971;51.046;3.732;2023-07-09T04:21:51;23.80;99.90
23073;DHT22;67971;51.046;3.732;2023-07-09T04:24:18;23.70;99.90
23073;DHT22;67971;51.046;3.732;2023-07-09T04:26:44;23.70;99.90
23073;DHT22;67971;51.046;3.732;2023-07-09T04:29:10;23.80;99.90
23073;DHT22;67971;51.046;3.732;2023-07-09T04:31:35;23.80;99.90
23073;DHT22;67971;51.046;3.732;2023-07-09T04:34:01;23.80;99.90
23073;DHT22;67971;51.046;3.732;2023-07-09T04:36:27;23.50;99.90
23073;DHT22;67971;51.046;3.732;2023-07-09T04:38:52;23.60;99.90
23073;DHT22;67971;51.046;3.732;2023-07-09T04:41:18;23.70;99.90
23073;DHT22;67971;51.046;3.732;2023-07-09T04:43:44;23.90;99.90
23073;DHT22;67971;51.046;3.732;2023-07-09T04:46:09;23.90;99.90
23073;DHT22;67971;51.046;3.732;2023-07-09T04:48:35;23.90;99.90
23073;DHT22;67971;51.046;3.732;2023-07-09T04:51:01;23.90;99.90
23073;DHT22;67971;51.046;3.732;2023-07-09T04:53:27;23.80;99.90
23073;DHT22;67971;51.046;3.732;2023-07-09T04:55:53;23.90;99.90
23073;DHT22;67971;51.046;3.732;2023-07-09T04:58:18;24.00;99.90
23073;DHT22;67971;51.046;3.732;2023-07-09T05:00:44;24.10;99.90
23073;DHT22;67971;51.046;3.732;2023-07-09T05:03:11;24.20;99.90
23073;DHT22;67971;51.046;3.732;2023-07-09T05:05:45;24.00;99.90
23073;DHT22;67971;51.046;3.732;2023-07-09T05:08:12;23.90;99.90
23073;DHT22;67971;51.046;3.732;2023-07-09T05:10:44;23.90;99.90
23073;DHT22;67971;51.046;3.732;2023-07-09T05:13:10;23.90;99.90
23073;DHT22;67971;51.046;3.732;2023-07-09T05:15:40;24.00;99.90
23073;DHT22;67971;51.046;3.732;2023-07-09T05:18:06;24.10;99.90
23073;DHT22;67971;51.046;3.732;2023-07-09T05:20:33;24.20;99.90
23073;DHT22;67971;51.046;3.732;2023-07-09T05:22:59;24.30;99.90
23073;DHT22;67971;51.046;3.732;2023-07-09T05:25:25;24.30;99.90
23073;DHT22;67971;51.046;3.732;2023-07-09T05:27:50;24.50;99.90
23073;DHT22;67971;51.046;3.732;2023-07-09T05:30:17;24.60;99.90
23073;DHT22;67971;51.046;3.732;2023-07-09T05:32:43;24.70;99.90
23073;DHT22;67971;51.046;3.732;2023-07-09T05:35:09;24.60;99.90
23073;DHT22;67971;51.046;3.732;2023-07-09T05:37:36;24.60;99.90
23073;DHT22;67971;51.046;3.732;2023-07-09T05:40:01;24.60;99.90
23073;DHT22;67971;51.046;3.732;2023-07-09T05:42:27;24.60;99.90
23073;DHT22;67971;51.046;3.732;2023-07-09T05:44:53;24.80;99.90
23073;DHT22;67971;51.046;3.732;2023-07-09T05:47:19;24.80;99.90
23073;DHT22;67971;51.046;3.732;2023-07-09T05:49:44;24.70;99.90
23073;DHT22;67971;51.046;3.732;2023-07-09T05:52:15;24.70;99.90
23073;DHT22;67971;51.046;3.732;2023-07-09T05:54:40;24.70;99.90
23073;DHT22;67971;51.046;3.732;2023-07-09T05:57:06;24.80;99.90
23073;DHT22;67971;51.046;3.732;2023-07-09T05:59:32;24.90;99.90
23073;DHT22;67971;51.046;3.732;2023-07-09T06:01:57;25.10;99.90
23073;DHT22;67971;51.046;3.732;2023-07-09T06:04:25;25.30;99.90
23073;DHT22;67971;51.046;3.732;2023-07-09T06:06:51;25.40;99.90
23073;DHT22;67971;51.046;3.732;2023-07-09T06:09:17;25.60;99.90
23073;DHT22;67971;51.046;3.732;2023-07-09T06:11:43;25.60;99.90
23073;DHT22;67971;51.046;3.732;2023-07-09T06:14:09;25.80;99.90
23073;DHT22;67971;51.046;3.732;2023-07-09T06:16:35;25.80;99.90
23073;DHT22;67971;51.046;3.732;2023-07-09T06:19:01;25.80;99.90
23073;DHT22;67971;51.046;3.732;2023-07-09T06:21:27;25.80;99.90
23073;DHT22;67971;51.046;3.732;2023-07-09T06:23:52;25.90;99.90
23073;DHT22;67971;51.046;3.732;2023-07-09T06:26:18;26.00;99.90
23073;DHT22;67971;51.046;3.732;2023-07-09T06:28:44;26.10;99.90
23073;DHT22;67971;51.046;3.732;2023-07-09T06:31:10;26.30;99.90
23073;DHT22;67971;51.046;3.732;2023-07-09T06:33:36;26.40;99.90
23073;DHT22;67971;51.046;3.732;2023-07-09T06:36:02;26.70;99.90
23073;DHT22;67971;51.046;3.732;2023-07-09T06:38:29;26.90;99.90
23073;DHT22;67971;51.046;3.732;2023-07-09T06:40:56;27.20;99.90
23073;DHT22;67971;51.046;3.732;2023-07-09T06:43:21;27.50;99.90
23073;DHT22;67971;51.046;3.732;2023-07-09T06:45:58;27.80;99.90
23073;DHT22;67971;51.046;3.732;2023-07-09T06:48:26;28.20;99.90
23073;DHT22;67971;51.046;3.732;2023-07-09T06:50:53;28.50;99.90
23073;DHT22;67971;51.046;3.732;2023-07-09T06:53:20;28.70;99.90
23073;DHT22;67971;51.046;3.732;2023-07-09T06:55:46;28.90;99.90
23073;DHT22;67971;51.046;3.732;2023-07-09T06:58:15;29.10;99.90
23073;DHT22;67971;51.046;3.732;2023-07-09T07:00:41;29.10;99.90
23073;DHT22;67971;51.046;3.732;2023-07-09T07:03:06;29.10;99.90
23073;DHT22;67971;51.046;3.732;2023-07-09T07:05:32;29.10;99.90
23073;DHT22;67971;51.046;3.732;2023-07-09T07:07:59;29.20;99.90
23073;DHT22;67971;51.046;3.732;2023-07-09T07:10:24;29.10;99.90
23073;DHT22;67971;51.046;3.732;2023-07-09T07:12:52;29.10;99.90
23073;DHT22;67971;51.046;3.732;2023-07-09T07:15:18;29.20;99.90
23073;DHT22;67971;51.046;3.732;2023-07-09T07:17:44;29.20;99.90
23073;DHT22;67971;51.046;3.732;2023-07-09T07:20:11;29.20;99.90
23073;DHT22;67971;51.046;3.732;2023-07-09T07:22:37;29.30;99.90
23073;DHT22;67971;51.046;3.732;2023-07-09T07:25:05;29.50;99.90
23073;DHT22;67971;51.046;3.732;2023-07-09T07:27:31;29.90;99.90
23073;DHT22;67971;51.046;3.732;2023-07-09T07:29:57;29.90;99.90
23073;DHT22;67971;51.046;3.732;2023-07-09T07:32:23;30.00;99.90
23073;DHT22;67971;51.046;3.732;2023-07-09T07:34:49;30.00;99.90
23073;DHT22;67971;51.046;3.732;2023-07-09T07:37:15;30.00;99.90
23073;DHT22;67971;51.046;3.732;2023-07-09T07:39:41;30.20;99.90
23073;DHT22;67971;51.046;3.732;2023-07-09T07:42:07;30.50;99.90
23073;DHT22;67971;51.046;3.732;2023-07-09T07:44:33;30.30;99.90
23073;DHT22;67971;51.046;3.732;2023-07-09T07:46:58;30.40;99.90
23073;DHT22;67971;51.046;3.732;2023-07-09T07:49:24;30.30;99.90
23073;DHT22;67971;51.046;3.732;2023-07-09T07:51:50;30.50;99.90
23073;DHT22;67971;51.046;3.732;2023-07-09T07:54:15;30.90;99.90
23073;DHT22;67971;51.046;3.732;2023-07-09T07:56:43;31.30;99.90
23073;DHT22;67971;51.046;3.732;2023-07-09T07:59:09;31.40;99.90
23073;DHT22;67971;51.046;3.732;2023-07-09T08:01:35;31.30;99.90
23073;DHT22;67971;51.046;3.732;2023-07-09T08:04:02;31.50;99.90
23073;DHT22;67971;51.046;3.732;2023-07-09T08:06:28;31.50;99.90
23073;DHT22;67971;51.046;3.732;2023-07-09T08:08:53;31.80;99.90
23073;DHT22;67971;51.046;3.732;2023-07-09T08:11:19;31.90;99.90
23073;DHT22;67971;51.046;3.732;2023-07-09T08:13:45;31.80;99.90
23073;DHT22;67971;51.046;3.732;2023-07-09T08:16:11;31.60;99.90
23073;DHT22;67971;51.046;3.732;2023-07-09T08:18:37;31.50;99.90
23073;DHT22;67971;51.046;3.732;2023-07-09T08:21:04;31.30;99.90
23073;DHT22;67971;51.046;3.732;2023-07-09T08:23:30;31.70;99.90
23073;DHT22;67971;51.046;3.732;2023-07-09T08:25:57;32.30;99.90
23073;DHT22;67971;51.046;3.732;2023-07-09T08:28:23;32.00;99.90
23073;DHT22;67971;51.046;3.732;2023-07-09T08:30:54;31.60;99.90
23073;DHT22;67971;51.046;3.732;2023-07-09T08:33:21;32.00;99.90
23073;DHT22;67971;51.046;3.732;2023-07-09T08:35:51;32.70;99.90
23073;DHT22;67971;51.046;3.732;2023-07-09T08:38:17;33.30;99.90
23073;DHT22;67971;51.046;3.732;2023-07-09T08:44:24;34.30;99.90
23073;DHT22;67971;51.046;3.732;2023-07-09T08:49:43;35.80;99.00
23073;DHT22;67971;51.046;3.732;2023-07-09T08:52:17;36.20;98.20
23073;DHT22;67971;51.046;3.732;2023-07-09T08:54:47;36.20;97.30
23073;DHT22;67971;51.046;3.732;2023-07-09T08:57:19;35.20;97.80
23073;DHT22;67971;51.046;3.732;2023-07-09T08:59:46;35.60;97.90
23073;DHT22;67971;51.046;3.732;2023-07-09T09:02:33;36.30;97.00
23073;DHT22;67971;51.046;3.732;2023-07-09T09:05:03;36.80;96.90
23073;DHT22;67971;51.046;3.732;2023-07-09T09:07:43;37.40;96.00
23073;DHT22;67971;51.046;3.732;2023-07-09T09:10:18;37.60;95.40
23073;DHT22;67971;51.046;3.732;2023-07-09T09:13:05;37.70;95.40
23073;DHT22;67971;51.046;3.732;2023-07-09T09:15:40;37.80;95.10
23073;DHT22;67971;51.046;3.732;2023-07-09T09:21:01;37.60;94.70
23073;DHT22;67971;51.046;3.732;2023-07-09T09:23:51;37.50;94.20
23073;DHT22;67971;51.046;3.732;2023-07-09T09:26:34;37.50;94.00
23073;DHT22;67971;51.046;3.732;2023-07-09T09:29:00;37.00;94.00
23073;DHT22;67971;51.046;3.732;2023-07-09T09:31:27;36.20;94.20
23073;DHT22;67971;51.046;3.732;2023-07-09T09:33:53;36.20;94.70
23073;DHT22;67971;51.046;3.732;2023-07-09T09:36:24;35.80;95.10
23073;DHT22;67971;51.046;3.732;2023-07-09T09:38:50;36.90;94.40
23073;DHT22;67971;51.046;3.732;2023-07-09T09:41:22;37.60;94.00
23073;DHT22;67971;51.046;3.732;2023-07-09T09:43:52;37.70;93.50
23073;DHT22;67971;51.046;3.732;2023-07-09T09:46:20;36.60;94.40
23073;DHT22;67971;51.046;3.732;2023-07-09T09:48:53;35.80;94.70
23073;DHT22;67971;51.046;3.732;2023-07-09T09:51:19;35.40;95.50
23073;DHT22;67971;51.046;3.732;2023-07-09T09:54:00;35.10;95.60
23073;DHT22;67971;51.046;3.732;2023-07-09T09:56:28;34.80;96.00
23073;DHT22;67971;51.046;3.732;2023-07-09T09:58:55;34.80;96.20
23073;DHT22;67971;51.046;3.732;2023-07-09T10:01:27;34.40;96.80
23073;DHT22;67971;51.046;3.732;2023-07-09T10:03:56;34.10;97.30
23073;DHT22;67971;51.046;3.732;2023-07-09T10:09:24;33.10;97.50
23073;DHT22;67971;51.046;3.732;2023-07-09T10:20:34;31.00;99.90
23073;DHT22;67971;51.046;3.732;2023-07-09T10:22:59;30.50;99.90
23073;DHT22;67971;51.046;3.732;2023-07-09T10:33:07;29.70;99.90
23073;DHT22;67971;51.046;3.732;2023-07-09T10:35:41;29.70;99.90
23073;DHT22;67971;51.046;3.732;2023-07-09T10:40:55;29.40;99.90
23073;DHT22;67971;51.046;3.732;2023-07-09T10:43:38;29.20;99.90
23073;DHT22;67971;51.046;3.732;2023-07-09T10:46:23;28.90;99.90
23073;DHT22;67971;51.046;3.732;2023-07-09T10:48:52;28.70;99.90
23073;DHT22;67971;51.046;3.732;2023-07-09T10:53:47;28.80;99.90
23073;DHT22;67971;51.046;3.732;2023-07-09T10:56:27;28.70;99.90
23073;DHT22;67971;51.046;3.732;2023-07-09T11:01:40;29.00;99.90
23073;DHT22;67971;51.046;3.732;2023-07-09T11:04:35;29.60;99.90
23073;DHT22;67971;51.046;3.732;2023-07-09T11:07:05;30.30;99.90
23073;DHT22;67971;51.046;3.732;2023-07-09T11:09:35;31.90;99.90
23073;DHT22;67971;51.046;3.732;2023-07-09T11:17:45;36.00;98.30
23073;DHT22;67971;51.046;3.732;2023-07-09T11:20:19;36.00;97.40
23073;DHT22;67971;51.046;3.732;2023-07-09T11:22:53;36.40;97.30
23073;DHT22;67971;51.046;3.732;2023-07-09T11:25:31;36.70;96.80
23073;DHT22;67971;51.046;3.732;2023-07-09T11:28:06;37.00;96.90
23073;DHT22;67971;51.046;3.732;2023-07-09T11:30:32;37.10;96.40
23073;DHT22;67971;51.046;3.732;2023-07-09T11:33:02;36.00;96.90
23073;DHT22;67971;51.046;3.732;2023-07-09T11:35:49;34.60;97.50
23073;DHT22;67971;51.046;3.732;2023-07-09T11:38:18;33.20;98.90
23073;DHT22;67971;51.046;3.732;2023-07-09T11:40:52;32.30;99.90
23073;DHT22;67971;51.046;3.732;2023-07-09T11:43:35;31.90;99.90
23073;DHT22;67971;51.046;3.732;2023-07-09T11:46:24;31.50;99.90
23073;DHT22;67971;51.046;3.732;2023-07-09T11:48:54;31.00;99.90
23073;DHT22;67971;51.046;3.732;2023-07-09T11:51:25;30.90;99.90
23073;DHT22;67971;51.046;3.732;2023-07-09T11:53:55;30.60;99.90
23073;DHT22;67971;51.046;3.732;2023-07-09T11:56:22;30.40;99.90
23073;DHT22;67971;51.046;3.732;2023-07-09T11:58:50;30.60;99.90
23073;DHT22;67971;51.046;3.732;2023-07-09T12:01:19;30.80;99.90
23073;DHT22;67971;51.046;3.732;2023-07-09T12:03:46;31.10;99.90
23073;DHT22;67971;51.046;3.732;2023-07-09T12:06:24;31.60;99.90
23073;DHT22;67971;51.046;3.732;2023-07-09T12:08:52;31.60;99.90
23073;DHT22;67971;51.046;3.732;2023-07-09T12:11:22;31.40;99.90
23073;DHT22;67971;51.046;3.732;2023-07-09T12:13:49;31.40;99.90
23073;DHT22;67971;51.046;3.732;2023-07-09T12:16:25;31.30;99.90
23073;DHT22;67971;51.046;3.732;2023-07-09T12:18:52;31.20;99.90
23073;DHT22;67971;51.046;3.732;2023-07-09T12:21:18;31.00;99.90
23073;DHT22;67971;51.046;3.732;2023-07-09T12:23:44;30.30;99.90
23073;DHT22;67971;51.046;3.732;2023-07-09T12:26:14;29.70;99.90
23073;DHT22;67971;51.046;3.732;2023-07-09T12:28:40;28.80;99.90
23073;DHT22;67971;51.046;3.732;2023-07-09T12:31:13;28.10;99.90
23073;DHT22;67971;51.046;3.732;2023-07-09T12:33:49;28.20;99.90
23073;DHT22;67971;51.046;3.732;2023-07-09T12:36:16;28.00;99.90
23073;DHT22;67971;51.046;3.732;2023-07-09T12:38:47;27.80;99.90
23073;DHT22;67971;51.046;3.732;2023-07-09T12:43:45;27.90;99.90
23073;DHT22;67971;51.046;3.732;2023-07-09T12:46:10;27.90;99.90
23073;DHT22;67971;51.046;3.732;2023-07-09T12:48:36;27.90;99.90
23073;DHT22;67971;51.046;3.732;2023-07-09T12:51:07;27.60;99.90
23073;DHT22;67971;51.046;3.732;2023-07-09T12:53:33;27.70;99.90
23073;DHT22;67971;51.046;3.732;2023-07-09T12:56:00;27.60;99.90
23073;DHT22;67971;51.046;3.732;2023-07-09T12:58:32;27.60;99.90
23073;DHT22;67971;51.046;3.732;2023-07-09T13:00:59;27.30;99.90
23073;DHT22;67971;51.046;3.732;2023-07-09T13:03:28;27.10;99.90
23073;DHT22;67971;51.046;3.732;2023-07-09T13:06:01;26.60;99.90
23073;DHT22;67971;51.046;3.732;2023-07-09T13:08:31;26.10;99.90
23073;DHT22;67971;51.046;3.732;2023-07-09T13:10:57;25.70;99.90
23073;DHT22;67971;51.046;3.732;2023-07-09T13:13:24;25.80;99.90
23073;DHT22;67971;51.046;3.732;2023-07-09T13:16:01;26.10;99.90
23073;DHT22;67971;51.046;3.732;2023-07-09T13:18:28;26.20;99.90
23073;DHT22;67971;51.046;3.732;2023-07-09T13:20:55;26.10;99.90
23073;DHT22;67971;51.046;3.732;2023-07-09T13:23:26;26.20;99.90
23073;DHT22;67971;51.046;3.732;2023-07-09T13:25:53;26.40;99.90
23073;DHT22;67971;51.046;3.732;2023-07-09T13:28:27;26.10;99.90
23073;DHT22;67971;51.046;3.732;2023-07-09T13:30:59;26.10;99.90
23073;DHT22;67971;51.046;3.732;2023-07-09T13:33:25;26.40;99.90
23073;DHT22;67971;51.046;3.732;2023-07-09T13:35:51;26.50;99.90
23073;DHT22;67971;51.046;3.732;2023-07-09T13:38:20;26.60;99.90
23073;DHT22;67971;51.046;3.732;2023-07-09T13:40:49;26.40;99.90
23073;DHT22;67971;51.046;3.732;2023-07-09T13:43:19;26.50;99.90
23073;DHT22;67971;51.046;3.732;2023-07-09T13:45:45;26.50;99.90
23073;DHT22;67971;51.046;3.732;2023-07-09T13:48:16;26.30;99.90
23073;DHT22;67971;51.046;3.732;2023-07-09T13:50:43;26.10;99.90
23073;DHT22;67971;51.046;3.732;2023-07-09T13:53:23;26.10;99.90
23073;DHT22;67971;51.046;3.732;2023-07-09T13:55:50;26.10;99.90
23073;DHT22;67971;51.046;3.732;2023-07-09T13:58:18;26.30;99.90
23073;DHT22;67971;51.046;3.732;2023-07-09T14:00:45;26.10;99.90
23073;DHT22;67971;51.046;3.732;2023-07-09T14:03:22;26.20;99.90
23073;DHT22;67971;51.046;3.732;2023-07-09T14:05:50;26.20;99.90
23073;DHT22;67971;51.046;3.732;2023-07-09T14:08:16;26.10;99.90
23073;DHT22;67971;51.046;3.732;2023-07-09T14:10:46;26.00;99.90
23073;DHT22;67971;51.046;3.732;2023-07-09T14:13:17;26.20;99.90
23073;DHT22;67971;51.046;3.732;2023-07-09T14:15:43;26.20;99.90
23073;DHT22;67971;51.046;3.732;2023-07-09T14:18:22;26.30;99.90
23073;DHT22;67971;51.046;3.732;2023-07-09T14:20:49;26.30;99.90
23073;DHT22;67971;51.046;3.732;2023-07-09T14:23:16;26.50;99.90
23073;DHT22;67971;51.046;3.732;2023-07-09T14:25:43;27.70;99.90
23073;DHT22;67971;51.046;3.732;2023-07-09T14:28:11;29.40;99.90
23073;DHT22;67971;51.046;3.732;2023-07-09T14:30:37;30.00;99.90
23073;DHT22;67971;51.046;3.732;2023-07-09T14:33:04;30.40;99.90
23073;DHT22;67971;51.046;3.732;2023-07-09T14:35:30;30.20;99.90
23073;DHT22;67971;51.046;3.732;2023-07-09T14:37:56;30.30;99.90
23073;DHT22;67971;51.046;3.732;2023-07-09T14:40:25;31.30;99.90
23073;DHT22;67971;51.046;3.732;2023-07-09T14:42:51;31.20;99.90
23073;DHT22;67971;51.046;3.732;2023-07-09T14:45:22;30.80;99.90
23073;DHT22;67971;51.046;3.732;2023-07-09T14:47:49;30.20;99.90
23073;DHT22;67971;51.046;3.732;2023-07-09T14:50:16;29.80;99.90
23073;DHT22;67971;51.046;3.732;2023-07-09T14:52:43;30.40;99.90
23073;DHT22;67971;51.046;3.732;2023-07-09T14:55:29;31.20;99.90
23073;DHT22;67971;51.046;3.732;2023-07-09T14:57:55;32.00;99.90
23073;DHT22;67971;51.046;3.732;2023-07-09T15:00:25;31.60;99.90
23073;DHT22;67971;51.046;3.732;2023-07-09T15:02:52;31.10;99.90
23073;DHT22;67971;51.046;3.732;2023-07-09T15:05:22;31.50;99.90
23073;DHT22;67971;51.046;3.732;2023-07-09T15:07:48;31.60;99.90
23073;DHT22;67971;51.046;3.732;2023-07-09T15:10:16;31.00;99.90
23073;DHT22;67971;51.046;3.732;2023-07-09T15:12:42;30.70;99.90
23073;DHT22;67971;51.046;3.732;2023-07-09T15:15:40;31.20;99.90
23073;DHT22;67971;51.046;3.732;2023-07-09T15:18:14;31.70;99.90
23073;DHT22;67971;51.046;3.732;2023-07-09T15:20:43;32.40;99.90
23073;DHT22;67971;51.046;3.732;2023-07-09T15:23:11;32.40;99.90
23073;DHT22;67971;51.046;3.732;2023-07-09T15:25:37;33.10;99.90
23073;DHT22;67971;51.046;3.732;2023-07-09T15:28:03;33.20;99.90
23073;DHT22;67971;51.046;3.732;2023-07-09T15:30:30;32.80;99.90
23073;DHT22;67971;51.046;3.732;2023-07-09T15:32:57;32.40;99.90
23073;DHT22;67971;51.046;3.732;2023-07-09T15:35:30;31.70;99.90
23073;DHT22;67971;51.046;3.732;2023-07-09T15:37:56;31.30;99.90
23073;DHT22;67971;51.046;3.732;2023-07-09T15:40:25;30.90;99.90
23073;DHT22;67971;51.046;3.732;2023-07-09T15:42:57;30.60;99.90
23073;DHT22;67971;51.046;3.732;2023-07-09T15:45:23;30.10;99.90
23073;DHT22;67971;51.046;3.732;2023-07-09T15:47:51;29.60;99.90
23073;DHT22;67971;51.046;3.732;2023-07-09T15:50:20;29.30;99.90
23073;DHT22;67971;51.046;3.732;2023-07-09T15:52:46;29.00;99.90
23073;DHT22;67971;51.046;3.732;2023-07-09T15:55:18;29.00;99.90
23073;DHT22;67971;51.046;3.732;2023-07-09T15:57:48;29.10;99.90
23073;DHT22;67971;51.046;3.732;2023-07-09T16:02:41;29.50;99.90
23073;DHT22;67971;51.046;3.732;2023-07-09T16:05:28;29.50;99.90
23073;DHT22;67971;51.046;3.732;2023-07-09T16:07:56;29.40;99.90
23073;DHT22;67971;51.046;3.732;2023-07-09T16:10:24;29.10;99.90
23073;DHT22;67971;51.046;3.732;2023-07-09T16:12:50;29.30;99.90
23073;DHT22;67971;51.046;3.732;2023-07-09T16:15:18;29.10;99.90
23073;DHT22;67971;51.046;3.732;2023-07-09T16:17:45;29.30;99.90
23073;DHT22;67971;51.046;3.732;2023-07-09T16:20:12;29.50;99.90
23073;DHT22;67971;51.046;3.732;2023-07-09T16:22:40;29.30;99.90
23073;DHT22;67971;51.046;3.732;2023-07-09T16:25:32;28.90;99.90